Time;durP1;ratioP1;P1;durP2;ratioP2;P2;SDS_P1;SDS_P2;PMS_P1;PMS_P2;Temp;Humidity;BMP_temperature;BMP_pressure;BME280_temperature;BME280_humidity;BME280_pressure;Samples;Min_cycle;Max_cycle;Signal;HPM_P1;HPM_P2
2022/03/14 00:01:34;;;;;;;1.05;0.73;;;14.40;69.40;;;;;;5009089;28;20457;-77
2022/03/14 00:03:59;;;;;;;1.17;0.60;;;14.40;69.40;;;;;;5012864;28;20041;-76
2022/03/14 00:06:25;;;;;;;0.70;0.50;;;14.40;69.10;;;;;;5012427;28;20030;-76
2022/03/14 00:08:54;;;;;;;0.80;0.60;;;14.40;69.20;;;;;;5012658;28;20030;-78
2022/03/14 00:11:22;;;;;;;1.00;0.60;;;14.40;69.10;;;;;;5012984;28;20069;-75
2022/03/14 00:13:47;;;;;;;1.15;0.50;;;14.40;69.40;;;;;;5012071;28;20026;-76
2022/03/14 00:16:17;;;;;;;1.92;0.57;;;14.30;69.20;;;;;;5011034;28;20026;-76
2022/03/14 00:18:51;;;;;;;1.45;0.65;;;14.30;69.30;;;;;;5011163;28;20018;-76
2022/03/14 00:21:19;;;;;;;1.02;0.60;;;14.30;69.30;;;;;;5010884;28;20088;-76
2022/03/14 00:23:44;;;;;;;1.00;0.60;;;14.20;69.60;;;;;;5011719;28;20019;-78
2022/03/14 00:26:11;;;;;;;0.88;0.50;;;14.20;69.50;;;;;;5010459;28;20084;-76
2022/03/14 00:28:37;;;;;;;0.93;0.52;;;14.10;69.70;;;;;;5011071;28;20463;-77
2022/03/14 00:31:02;;;;;;;0.68;0.40;;;14.10;70.00;;;;;;5010592;28;20034;-77
2022/03/14 00:33:28;;;;;;;1.02;0.50;;;14.00;70.20;;;;;;5011291;28;20026;-77
2022/03/14 00:35:56;;;;;;;0.50;0.35;;;14.00;70.50;;;;;;5011060;28;20033;-77
2022/03/14 00:38:23;;;;;;;0.70;0.40;;;13.90;70.70;;;;;;5010020;28;20026;-77
2022/03/14 00:40:50;;;;;;;0.68;0.35;;;13.90;70.70;;;;;;5011598;28;20366;-77
2022/03/14 00:43:15;;;;;;;2.75;0.50;;;13.90;70.70;;;;;;5010303;28;20084;-77
2022/03/14 00:45:41;;;;;;;0.80;0.40;;;13.90;70.90;;;;;;5011383;28;20493;-77
2022/03/14 00:48:07;;;;;;;0.50;0.30;;;14.00;70.90;;;;;;5010463;28;20025;-77
2022/03/14 00:50:33;;;;;;;0.82;0.50;;;13.90;71.10;;;;;;5011136;28;20382;-77
2022/03/14 00:53:01;;;;;;;0.80;0.40;;;13.80;71.90;;;;;;5011531;28;20037;-77
2022/03/14 00:55:27;;;;;;;0.65;0.35;;;13.80;71.60;;;;;;5012466;28;20033;-77
2022/03/14 00:57:52;;;;;;;0.80;0.38;;;13.80;71.60;;;;;;5011487;28;20402;-77
2022/03/14 01:00:18;;;;;;;0.45;0.28;;;13.90;71.60;;;;;;5011919;28;20018;-77
2022/03/14 01:02:48;;;;;;;0.82;0.30;;;13.90;71.50;;;;;;5010051;28;20512;-77
2022/03/14 01:05:14;;;;;;;0.43;0.22;;;14.00;71.70;;;;;;5010678;28;20032;-76
2022/03/14 01:07:39;;;;;;;1.90;0.60;;;14.10;71.30;;;;;;5007930;28;20053;-76
2022/03/14 01:10:06;;;;;;;0.88;0.43;;;14.10;71.20;;;;;;5010763;28;20458;-77
2022/03/14 01:12:32;;;;;;;0.57;0.40;;;14.10;71.10;;;;;;5011184;28;20037;-76
2022/03/14 01:14:58;;;;;;;0.82;0.43;;;14.00;71.30;;;;;;5010770;28;20029;-76
2022/03/14 01:17:23;;;;;;;0.80;0.40;;;14.10;71.40;;;;;;5010290;28;20120;-76
2022/03/14 01:19:49;;;;;;;0.60;0.38;;;14.00;71.60;;;;;;5011459;28;20085;-76
2022/03/14 01:22:14;;;;;;;1.05;0.50;;;14.00;71.80;;;;;;5013926;28;20034;-76
2022/03/14 01:24:42;;;;;;;1.55;0.60;;;14.00;72.10;;;;;;5014579;28;20026;-76
2022/03/14 01:27:08;;;;;;;1.40;0.77;;;14.00;72.20;;;;;;5013723;28;20354;-76
2022/03/14 01:29:34;;;;;;;0.90;0.50;;;14.00;72.80;;;;;;5014841;28;20026;-76
2022/03/14 01:32:01;;;;;;;1.00;0.52;;;14.00;72.30;;;;;;5013722;28;20053;-76
2022/03/14 01:34:27;;;;;;;0.70;0.43;;;14.00;72.30;;;;;;5012711;28;20030;-76
2022/03/14 01:36:53;;;;;;;0.80;0.60;;;14.00;72.50;;;;;;5014005;28;20034;-76
2022/03/14 01:39:18;;;;;;;0.70;0.40;;;14.10;72.40;;;;;;5014415;28;20117;-76
2022/03/14 01:41:44;;;;;;;1.50;0.60;;;14.10;72.40;;;;;;5013894;28;20018;-76
2022/03/14 01:44:09;;;;;;;0.93;0.70;;;14.10;72.30;;;;;;5014364;28;20105;-76
2022/03/14 01:46:35;;;;;;;0.80;0.60;;;14.10;72.40;;;;;;5014454;28;20029;-76
2022/03/14 01:49:01;;;;;;;0.80;0.60;;;14.10;72.50;;;;;;5016127;28;20026;-77
2022/03/14 01:51:27;;;;;;;1.38;0.77;;;14.20;72.30;;;;;;5014833;28;20044;-75
2022/03/14 01:53:53;;;;;;;2.35;0.40;;;14.20;72.50;;;;;;5014943;28;20108;-75
2022/03/14 01:56:20;;;;;;;1.00;0.68;;;14.10;72.30;;;;;;5013144;28;20131;-74
2022/03/14 01:58:46;;;;;;;1.92;0.85;;;14.10;72.40;;;;;;5014110;28;20025;-75
2022/03/14 02:01:12;;;;;;;1.42;0.80;;;14.20;72.50;;;;;;5014061;28;20026;-75
2022/03/14 02:03:38;;;;;;;2.67;0.70;;;14.10;72.50;;;;;;5013740;28;20029;-75
2022/03/14 02:06:04;;;;;;;1.20;0.70;;;14.10;72.70;;;;;;5014147;28;20383;-75
2022/03/14 02:08:29;;;;;;;1.20;0.85;;;14.10;72.60;;;;;;5014255;28;20033;-75
2022/03/14 02:10:55;;;;;;;1.13;0.90;;;14.20;73.00;;;;;;5014654;28;20042;-75
2022/03/14 02:13:21;;;;;;;0.98;0.70;;;14.10;72.80;;;;;;5014139;28;20018;-75
2022/03/14 02:15:47;;;;;;;1.13;0.73;;;14.10;72.80;;;;;;5014831;28;20049;-75
2022/03/14 02:18:13;;;;;;;1.65;1.00;;;14.10;73.00;;;;;;5014059;28;20018;-75
2022/03/14 02:20:38;;;;;;;1.65;1.10;;;14.10;73.10;;;;;;5014144;28;20040;-76
2022/03/14 02:23:04;;;;;;;1.30;1.00;;;14.10;73.30;;;;;;5014029;28;20026;-75
2022/03/14 02:25:32;;;;;;;1.95;1.05;;;14.00;73.70;;;;;;5008491;28;20032;-76
2022/03/14 02:27:58;;;;;;;1.13;1.00;;;13.90;74.10;;;;;;5014514;28;20412;-76
2022/03/14 02:30:23;;;;;;;1.55;0.93;;;13.90;74.20;;;;;;5014339;28;20113;-76
2022/03/14 02:32:49;;;;;;;2.42;1.20;;;13.80;74.20;;;;;;5012099;28;20040;-76
2022/03/14 02:35:15;;;;;;;1.52;1.40;;;13.90;74.50;;;;;;5013834;28;20021;-76
2022/03/14 02:37:41;;;;;;;1.70;1.33;;;13.80;74.70;;;;;;5013567;28;20030;-76
2022/03/14 02:40:08;;;;;;;1.40;1.00;;;13.80;75.00;;;;;;5013940;28;20026;-76
2022/03/14 02:42:34;;;;;;;1.67;1.38;;;13.70;75.50;;;;;;5014129;28;20122;-76
2022/03/14 02:45:00;;;;;;;1.63;1.40;;;13.60;75.60;;;;;;5014232;28;20057;-76
2022/03/14 02:47:26;;;;;;;1.80;1.08;;;13.60;75.90;;;;;;5014189;28;20037;-76
2022/03/14 02:49:51;;;;;;;2.28;1.20;;;13.50;76.20;;;;;;5013754;28;20049;-77
2022/03/14 02:52:17;;;;;;;2.75;1.20;;;13.40;76.70;;;;;;5013192;28;20037;-76
2022/03/14 02:54:42;;;;;;;1.40;1.17;;;13.40;76.90;;;;;;5012142;28;20033;-76
2022/03/14 02:57:09;;;;;;;1.48;1.02;;;13.40;77.00;;;;;;5012724;28;20032;-76
2022/03/14 02:59:34;;;;;;;1.73;1.27;;;13.40;77.40;;;;;;5013197;28;20026;-76
2022/03/14 03:02:00;;;;;;;1.50;1.10;;;13.40;77.50;;;;;;5012493;28;20067;-76
2022/03/14 03:04:26;;;;;;;1.40;1.30;;;13.40;77.70;;;;;;5013044;28;20065;-76
2022/03/14 03:06:53;;;;;;;2.35;1.50;;;13.40;78.20;;;;;;5012349;28;20056;-76
2022/03/14 03:09:19;;;;;;;1.73;1.30;;;13.40;79.20;;;;;;5012537;28;20109;-75
2022/03/14 03:11:44;;;;;;;2.08;1.40;;;13.30;80.00;;;;;;5013151;28;20121;-75
2022/03/14 03:14:10;;;;;;;2.05;1.50;;;13.30;81.00;;;;;;5013022;28;20022;-75
2022/03/14 03:16:37;;;;;;;1.95;1.58;;;13.30;81.30;;;;;;5012385;28;20030;-75
2022/03/14 03:19:03;;;;;;;3.38;1.50;;;13.20;81.80;;;;;;5012364;28;20048;-76
2022/03/14 03:21:28;;;;;;;1.80;1.50;;;13.30;82.20;;;;;;5012813;28;20497;-76
2022/03/14 03:23:54;;;;;;;1.90;1.55;;;13.20;82.90;;;;;;5013591;28;20474;-76
2022/03/14 03:26:21;;;;;;;2.92;1.55;;;13.20;83.30;;;;;;5011420;28;20073;-76
2022/03/14 03:28:47;;;;;;;1.70;1.40;;;13.20;84.50;;;;;;5012372;28;20376;-76
2022/03/14 03:31:17;;;;;;;1.75;1.50;;;13.20;84.40;;;;;;5012730;28;20038;-76
2022/03/14 03:33:42;;;;;;;3.03;1.65;;;13.20;84.20;;;;;;5010751;28;20369;-76
2022/03/14 03:36:08;;;;;;;2.35;1.65;;;13.30;84.20;;;;;;5013290;28;20022;-76
2022/03/14 03:38:35;;;;;;;2.15;1.85;;;13.40;84.30;;;;;;5012419;28;20022;-76
2022/03/14 03:41:01;;;;;;;2.13;1.77;;;13.40;84.40;;;;;;5011652;28;20389;-76
2022/03/14 03:43:27;;;;;;;1.83;1.42;;;13.40;85.00;;;;;;5011388;28;20085;-76
2022/03/14 03:45:52;;;;;;;1.88;1.73;;;13.40;84.40;;;;;;5012153;28;20421;-76
2022/03/14 03:48:18;;;;;;;1.52;1.42;;;13.50;84.30;;;;;;5011161;28;20374;-77
2022/03/14 03:50:45;;;;;;;2.00;1.63;;;13.50;84.20;;;;;;5012187;28;20033;-77
2022/03/14 03:53:10;;;;;;;1.98;1.75;;;13.50;84.30;;;;;;5012804;28;20515;-76
2022/03/14 03:55:36;;;;;;;2.00;1.58;;;13.50;84.40;;;;;;5012923;28;20116;-77
2022/03/14 03:58:02;;;;;;;2.47;1.92;;;13.60;84.60;;;;;;5011437;28;20109;-76
2022/03/14 04:00:28;;;;;;;1.92;1.50;;;13.50;84.80;;;;;;5012281;28;20026;-76
2022/03/14 04:02:54;;;;;;;1.92;1.60;;;13.60;85.00;;;;;;5010732;28;20034;-78
2022/03/14 04:05:21;;;;;;;2.20;1.88;;;13.50;85.00;;;;;;5011592;28;20377;-77
2022/03/14 04:07:46;;;;;;;1.80;1.70;;;13.50;85.10;;;;;;5010823;28;20046;-77
2022/03/14 04:10:14;;;;;;;1.98;1.70;;;13.50;85.30;;;;;;5011612;28;20018;-77
2022/03/14 04:12:40;;;;;;;2.88;1.98;;;13.50;85.40;;;;;;5013333;28;20091;-77
2022/03/14 04:15:07;;;;;;;1.63;1.17;;;13.50;85.90;;;;;;5012543;28;20139;-77
2022/03/14 04:17:35;;;;;;;2.13;1.55;;;13.50;85.30;;;;;;5011812;28;20076;-77
2022/03/14 04:20:02;;;;;;;2.10;1.60;;;13.50;85.50;;;;;;5011525;28;20034;-77
2022/03/14 04:22:28;;;;;;;2.63;1.65;;;13.50;85.50;;;;;;5011284;28;20389;-78
2022/03/14 04:24:54;;;;;;;2.15;1.50;;;13.50;85.50;;;;;;5011573;28;20033;-78
2022/03/14 04:27:20;;;;;;;7.18;2.60;;;13.60;85.80;;;;;;5011717;28;20030;-78
2022/03/14 04:29:46;;;;;;;3.13;2.45;;;13.50;86.00;;;;;;5011641;28;20101;-78
2022/03/14 04:32:11;;;;;;;4.55;3.17;;;13.50;85.80;;;;;;5011084;28;20374;-78
2022/03/14 04:34:37;;;;;;;4.70;2.97;;;13.50;86.20;;;;;;5012924;28;20462;-77
2022/03/14 04:37:03;;;;;;;2.78;2.20;;;13.40;86.50;;;;;;5011382;28;20113;-78
2022/03/14 04:39:28;;;;;;;2.25;1.92;;;13.40;86.80;;;;;;5012627;28;20030;-78
2022/03/14 04:41:54;;;;;;;3.63;2.70;;;13.30;87.10;;;;;;5011472;28;20026;-78
2022/03/14 04:44:21;;;;;;;3.53;2.33;;;13.30;87.50;;;;;;5011933;28;21235;-78
2022/03/14 04:46:56;;;;;;;3.50;2.03;;;13.20;87.70;;;;;;5010665;28;20101;-78
2022/03/14 04:49:21;;;;;;;3.45;2.13;;;13.20;87.90;;;;;;5012480;28;20088;-78
2022/03/14 04:51:50;;;;;;;2.50;2.20;;;13.20;88.20;;;;;;5011985;28;20469;-77
2022/03/14 04:54:15;;;;;;;4.90;1.90;;;13.20;88.40;;;;;;5012464;28;20029;-77
2022/03/14 04:56:41;;;;;;;2.28;2.00;;;13.10;88.70;;;;;;5014460;28;20035;-78
2022/03/14 04:59:06;;;;;;;3.60;1.90;;;13.00;88.90;;;;;;5014789;28;20358;-77
2022/03/14 05:01:32;;;;;;;3.05;1.95;;;13.00;88.50;;;;;;5015078;28;20030;-77
2022/03/14 05:03:57;;;;;;;1.65;1.55;;;13.00;88.30;;;;;;5014704;28;20362;-77
2022/03/14 05:06:23;;;;;;;2.80;2.22;;;12.80;88.40;;;;;;5015075;28;20052;-78
2022/03/14 05:08:49;;;;;;;3.15;2.50;;;12.60;89.80;;;;;;5014755;28;20026;-78
2022/03/14 05:11:15;;;;;;;3.92;2.75;;;12.50;90.70;;;;;;5015276;28;20065;-78
2022/03/14 05:13:43;;;;;;;2.85;2.65;;;12.40;91.90;;;;;;5015054;28;20061;-78
2022/03/14 05:16:09;;;;;;;3.40;3.10;;;12.30;92.60;;;;;;5014979;28;20072;-78
2022/03/14 05:18:35;;;;;;;3.60;3.30;;;12.10;93.20;;;;;;5014786;28;20048;-78
2022/03/14 05:21:01;;;;;;;4.22;2.95;;;12.20;93.30;;;;;;5014537;28;20539;-78
2022/03/14 05:23:28;;;;;;;4.18;3.80;;;12.10;93.60;;;;;;5014292;28;20021;-78
2022/03/14 05:25:54;;;;;;;4.60;3.58;;;12.10;94.30;;;;;;5015025;28;20037;-77
2022/03/14 05:28:20;;;;;;;3.65;3.10;;;12.00;94.70;;;;;;5013672;28;20018;-77
2022/03/14 05:30:45;;;;;;;3.85;3.33;;;12.00;95.10;;;;;;5015064;28;20040;-78
2022/03/14 05:33:11;;;;;;;3.80;3.50;;;11.90;95.30;;;;;;5013632;28;20037;-77
2022/03/14 05:35:37;;;;;;;5.50;3.83;;;11.90;95.30;;;;;;5014749;28;20030;-77
2022/03/14 05:38:02;;;;;;;4.32;3.90;;;11.90;95.40;;;;;;5013600;28;20405;-77
2022/03/14 05:40:28;;;;;;;4.50;4.05;;;11.90;95.60;;;;;;5014953;28;20096;-77
2022/03/14 05:42:54;;;;;;;4.75;4.32;;;12.00;95.90;;;;;;5013126;28;20088;-75
2022/03/14 05:45:20;;;;;;;4.90;4.50;;;11.90;95.90;;;;;;5013426;28;20424;-76
2022/03/14 05:47:46;;;;;;;8.60;5.25;;;12.00;96.20;;;;;;5015512;28;20184;-75
2022/03/14 05:50:12;;;;;;;8.18;6.03;;;12.00;96.10;;;;;;5015894;28;20026;-76
2022/03/14 05:52:43;;;;;;;8.77;6.65;;;11.90;96.00;;;;;;5014734;28;20508;-75
2022/03/14 05:55:09;;;;;;;7.80;7.00;;;11.90;96.20;;;;;;5013984;28;20022;-75
2022/03/14 05:57:35;;;;;;;8.60;7.70;;;11.90;96.20;;;;;;5015002;28;20048;-76
2022/03/14 06:00:02;;;;;;;8.95;8.10;;;11.80;96.40;;;;;;5015007;28;20025;-76
2022/03/14 06:02:27;;;;;;;9.07;8.18;;;11.80;96.60;;;;;;5013585;28;20394;-76
2022/03/14 06:04:54;;;;;;;9.25;8.05;;;11.70;96.60;;;;;;5013531;28;20129;-76
2022/03/14 06:07:21;;;;;;;9.35;8.32;;;11.60;96.90;;;;;;5013364;28;20129;-76
2022/03/14 06:09:47;;;;;;;10.98;8.35;;;11.60;97.10;;;;;;5014754;28;20029;-76
2022/03/14 06:12:31;;;;;;;8.50;7.70;;;11.50;97.10;;;;;;5014507;28;20520;-76
2022/03/14 06:14:59;;;;;;;9.73;8.23;;;11.40;97.20;;;;;;5014440;28;20029;-76
2022/03/14 06:17:25;;;;;;;8.52;7.72;;;11.40;97.30;;;;;;5013633;28;20030;-76
2022/03/14 06:19:51;;;;;;;10.40;8.27;;;11.40;97.70;;;;;;5013420;28;20030;-78
2022/03/14 06:22:18;;;;;;;9.05;8.10;;;11.40;97.80;;;;;;5013430;28;20022;-78
2022/03/14 06:24:46;;;;;;;9.32;8.15;;;11.40;97.90;;;;;;5013990;28;20115;-77
2022/03/14 06:27:12;;;;;;;8.10;7.30;;;11.40;97.90;;;;;;5014709;28;20022;-77
2022/03/14 06:29:37;;;;;;;11.63;8.75;;;11.40;97.80;;;;;;5014360;28;20034;-77
2022/03/14 06:32:04;;;;;;;9.18;8.27;;;11.50;97.90;;;;;;5014134;28;20397;-77
2022/03/14 06:34:30;;;;;;;8.88;7.97;;;11.40;97.90;;;;;;5014062;28;20105;-78
2022/03/14 06:36:56;;;;;;;7.43;6.68;;;11.50;97.90;;;;;;5013926;28;20044;-77
2022/03/14 06:39:22;;;;;;;10.32;7.68;;;11.50;97.90;;;;;;5013268;28;20022;-78
2022/03/14 06:41:48;;;;;;;9.90;7.78;;;11.60;97.80;;;;;;5011403;28;20033;-78
2022/03/14 06:44:19;;;;;;;10.25;7.78;;;11.60;97.60;;;;;;5013338;28;20442;-78
2022/03/14 06:46:45;;;;;;;8.70;7.70;;;11.60;97.80;;;;;;5012802;28;20064;-78
2022/03/14 06:49:14;;;;;;;8.38;7.50;;;11.60;98.00;;;;;;5009965;28;20053;-77
2022/03/14 06:51:42;;;;;;;9.07;7.55;;;11.50;97.80;;;;;;5013604;28;20469;-77
2022/03/14 06:54:09;;;;;;;10.82;8.68;;;11.60;97.90;;;;;;5013505;28;20036;-76
2022/03/14 06:56:37;;;;;;;9.20;7.60;;;11.70;97.80;;;;;;5012992;28;20022;-77
2022/03/14 06:59:02;;;;;;;9.48;7.78;;;11.70;97.80;;;;;;5013398;28;20429;-79
2022/03/14 07:01:30;;;;;;;10.43;8.15;;;11.70;97.80;;;;;;5012685;28;20089;-82
2022/03/14 07:03:58;;;;;;;9.05;8.00;;;11.70;98.00;;;;;;5011498;28;20033;-82
2022/03/14 07:06:24;;;;;;;12.25;8.70;;;11.70;97.80;;;;;;5012168;28;20176;-78
2022/03/14 07:08:49;;;;;;;11.30;8.60;;;11.70;97.80;;;;;;5013493;28;20049;-81
2022/03/14 07:11:18;;;;;;;10.93;9.35;;;11.70;97.80;;;;;;5012760;28;20374;-81
2022/03/14 07:13:43;;;;;;;9.65;8.10;;;11.70;97.90;;;;;;5014201;28;20378;-81
2022/03/14 07:16:09;;;;;;;10.05;8.80;;;11.70;98.10;;;;;;5013661;28;20030;-82
2022/03/14 07:18:34;;;;;;;11.95;9.98;;;11.70;97.90;;;;;;5012198;28;20074;-83
2022/03/14 07:21:00;;;;;;;10.60;9.60;;;11.60;98.00;;;;;;5013242;28;20022;-82
2022/03/14 07:23:26;;;;;;;12.35;10.00;;;11.60;98.10;;;;;;5013467;28;20029;-83
2022/03/14 07:25:52;;;;;;;11.68;10.45;;;11.50;98.20;;;;;;5013593;28;20508;-79
2022/03/14 07:28:18;;;;;;;14.10;11.00;;;11.50;98.30;;;;;;5013688;28;20473;-79
2022/03/14 07:30:44;;;;;;;11.95;10.60;;;11.50;98.40;;;;;;5012627;28;20084;-77
2022/03/14 07:33:09;;;;;;;12.13;10.35;;;11.50;98.50;;;;;;5011715;28;20724;-80
2022/03/14 07:35:35;;;;;;;13.02;10.27;;;11.50;98.40;;;;;;5011873;28;20041;-80
2022/03/14 07:38:02;;;;;;;15.10;11.00;;;11.50;98.50;;;;;;5012364;28;20140;-82
2022/03/14 07:40:28;;;;;;;13.27;11.18;;;11.50;98.40;;;;;;5012068;28;20382;-79
2022/03/14 07:42:55;;;;;;;14.93;11.45;;;11.60;98.40;;;;;;5010914;28;20037;-78
2022/03/14 07:45:22;;;;;;;12.88;10.90;;;11.60;98.30;;;;;;5011705;28;20477;-78
2022/03/14 07:47:47;;;;;;;14.25;11.57;;;11.60;98.40;;;;;;5011647;28;20053;-77
2022/03/14 07:50:17;;;;;;;12.95;11.55;;;11.70;98.30;;;;;;5012107;28;20488;-78
2022/03/14 07:52:44;;;;;;;13.88;11.90;;;11.60;98.40;;;;;;5009551;28;20083;-82
2022/03/14 07:55:12;;;;;;;15.48;12.18;;;11.60;98.50;;;;;;5012668;28;20053;-80
2022/03/14 07:57:39;;;;;;;17.02;12.60;;;11.60;98.50;;;;;;5011699;28;20058;-81
2022/03/14 08:00:12;;;;;;;13.98;12.50;;;11.60;98.50;;;;;;5011185;28;20026;-79
2022/03/14 08:02:38;;;;;;;17.02;12.63;;;11.50;98.50;;;;;;5010926;28;20034;-79
2022/03/14 08:05:08;;;;;;;16.00;11.45;;;11.50;98.80;;;;;;5011222;28;20025;-80
2022/03/14 08:07:34;;;;;;;14.98;11.90;;;11.60;98.80;;;;;;5012278;28;20042;-79
2022/03/14 08:10:09;;;;;;;14.80;12.32;;;11.60;98.70;;;;;;5011826;28;20033;-81
2022/03/14 08:12:48;;;;;;;16.23;13.60;;;11.70;98.60;;;;;;5011067;28;20091;-79
2022/03/14 08:15:22;;;;;;;17.63;14.30;;;11.80;98.50;;;;;;5012509;28;20025;-80
2022/03/14 08:17:49;;;;;;;16.90;13.93;;;11.80;98.50;;;;;;5009511;28;20048;-78
2022/03/14 08:20:22;;;;;;;16.52;13.88;;;11.80;98.40;;;;;;5011051;28;20385;-80
2022/03/14 08:22:49;;;;;;;14.32;12.38;;;11.70;98.40;;;;;;5005249;28;20429;-85
2022/03/14 08:25:15;;;;;;;17.40;14.38;;;11.80;98.50;;;;;;5013130;28;20029;-79
2022/03/14 08:27:41;;;;;;;18.67;14.23;;;11.90;98.40;;;;;;5013091;28;20105;-78
2022/03/14 08:30:07;;;;;;;16.30;13.35;;;11.90;98.40;;;;;;5011456;28;20114;-79
2022/03/14 08:32:34;;;;;;;19.05;14.30;;;12.00;98.30;;;;;;5012504;28;20033;-80
2022/03/14 08:35:07;;;;;;;17.98;15.20;;;12.00;98.40;;;;;;5012737;28;20032;-79
2022/03/14 08:37:34;;;;;;;17.33;14.20;;;12.10;98.20;;;;;;5011868;28;20511;-77
2022/03/14 08:40:00;;;;;;;19.80;15.57;;;12.10;98.10;;;;;;5012112;28;20038;-78
2022/03/14 08:42:25;;;;;;;18.40;14.45;;;12.10;98.00;;;;;;5012259;28;20079;-79
2022/03/14 08:44:51;;;;;;;18.77;15.60;;;12.20;98.00;;;;;;5012477;28;20028;-78
2022/03/14 08:47:19;;;;;;;20.30;16.77;;;12.20;97.80;;;;;;5012259;28;20033;-79
2022/03/14 08:49:45;;;;;;;19.48;16.35;;;12.20;97.60;;;;;;5011957;28;20025;-78
2022/03/14 08:52:10;;;;;;;20.98;16.10;;;12.20;97.60;;;;;;5011518;28;20080;-78
2022/03/14 08:54:36;;;;;;;21.08;16.60;;;12.10;97.60;;;;;;5012224;28;20026;-76
2022/03/14 08:57:01;;;;;;;22.15;16.88;;;12.00;97.60;;;;;;5012645;28;20115;-77
2022/03/14 08:59:27;;;;;;;21.35;16.38;;;11.90;97.80;;;;;;5012013;28;20060;-80
2022/03/14 09:01:53;;;;;;;22.10;17.33;;;12.00;97.80;;;;;;5013098;28;20029;-81
2022/03/14 09:04:19;;;;;;;20.25;16.70;;;11.90;97.70;;;;;;5010774;28;20037;-80
2022/03/14 09:06:45;;;;;;;21.08;16.75;;;11.90;97.90;;;;;;5020137;28;20038;-80
2022/03/14 09:09:11;;;;;;;27.15;19.13;;;11.90;97.90;;;;;;5013067;28;20388;-81
2022/03/14 09:11:37;;;;;;;19.35;16.98;;;11.90;98.10;;;;;;5012538;28;20382;-80
2022/03/14 09:14:03;;;;;;;22.70;17.52;;;11.90;98.10;;;;;;5011803;28;20377;-81
2022/03/14 09:16:29;;;;;;;21.85;16.92;;;11.90;98.10;;;;;;5011593;28;20033;-81
2022/03/14 09:18:54;;;;;;;19.70;16.65;;;11.90;98.00;;;;;;5012360;28;20041;-80
2022/03/14 09:21:23;;;;;;;22.27;16.38;;;11.90;97.90;;;;;;5011083;28;21554;-80
2022/03/14 09:23:49;;;;;;;20.95;16.45;;;12.00;98.00;;;;;;5012493;28;20046;-80
2022/03/14 09:26:15;;;;;;;20.85;17.88;;;12.00;98.00;;;;;;5007581;28;20148;-78
2022/03/14 09:28:44;;;;;;;24.27;17.33;;;12.10;97.90;;;;;;5011814;28;20469;-78
2022/03/14 09:31:11;;;;;;;24.00;18.73;;;12.10;97.70;;;;;;5010725;28;20050;-79
2022/03/14 09:33:37;;;;;;;26.55;17.40;;;12.10;97.60;;;;;;5012439;28;20057;-79
2022/03/14 09:36:03;;;;;;;22.23;18.52;;;12.00;97.70;;;;;;5012192;28;20524;-81
2022/03/14 09:38:29;;;;;;;22.92;17.67;;;12.00;97.80;;;;;;5012053;28;20037;-78
2022/03/14 09:41:00;;;;;;;27.33;19.83;;;11.90;97.60;;;;;;5012492;28;20420;-77
2022/03/14 09:43:27;;;;;;;22.83;18.77;;;11.90;97.80;;;;;;5013622;28;20381;-77
2022/03/14 09:45:53;;;;;;;25.70;19.25;;;12.00;97.90;;;;;;5012928;28;20083;-76
2022/03/14 09:48:19;;;;;;;25.33;17.77;;;12.10;97.90;;;;;;5015950;28;20026;-77
2022/03/14 09:50:45;;;;;;;23.90;18.38;;;12.10;97.80;;;;;;5015760;28;20029;-76
2022/03/14 09:53:17;;;;;;;29.60;19.95;;;12.20;97.90;;;;;;5015805;28;20397;-76
2022/03/14 09:55:45;;;;;;;26.98;21.00;;;12.20;97.60;;;;;;5015623;28;20029;-76
2022/03/14 09:58:18;;;;;;;27.73;20.73;;;12.20;97.60;;;;;;5013850;28;20037;-77
2022/03/14 10:00:45;;;;;;;25.27;20.27;;;12.20;97.60;;;;;;5014378;28;20114;-75
2022/03/14 10:03:12;;;;;;;28.15;20.27;;;12.10;97.50;;;;;;5014018;28;20568;-77
2022/03/14 10:05:38;;;;;;;29.20;19.83;;;12.10;97.60;;;;;;5014548;28;20389;-76
2022/03/14 10:08:04;;;;;;;23.88;19.13;;;12.20;97.60;;;;;;5005179;28;20030;-77
2022/03/14 10:10:30;;;;;;;27.20;20.63;;;12.20;97.60;;;;;;4997625;28;20030;-75
2022/03/14 10:12:57;;;;;;;26.90;19.15;;;12.20;97.70;;;;;;5009496;28;20034;-75
2022/03/14 10:15:27;;;;;;;29.25;20.92;;;12.20;97.40;;;;;;4998283;28;20039;-75
2022/03/14 10:17:53;;;;;;;28.40;21.00;;;12.20;97.10;;;;;;5013577;28;20037;-75
2022/03/14 10:20:21;;;;;;;27.70;21.35;;;12.20;97.30;;;;;;5013808;28;20029;-76
2022/03/14 10:22:48;;;;;;;26.23;20.52;;;12.10;97.40;;;;;;5000987;28;20026;-75
2022/03/14 10:25:21;;;;;;;28.42;20.38;;;12.10;97.40;;;;;;5003218;28;20466;-75
2022/03/14 10:27:57;;;;;;;;;;;12.20;97.60;;;;;;5001514;28;20058;-75
2022/03/14 10:30:31;;;;;;;29.48;19.58;;;12.20;97.60;;;;;;5007562;28;19906;-76
2022/03/14 10:33:09;;;;;;;38.70;21.02;;;12.20;97.60;;;;;;5015602;28;20033;-76
2022/03/14 10:35:36;;;;;;;34.08;19.23;;;12.20;97.70;;;;;;5015927;28;20025;-76
2022/03/14 10:38:06;;;;;;;27.40;18.70;;;12.30;97.80;;;;;;5015351;28;20034;-76
2022/03/14 10:40:40;;;;;;;28.15;17.85;;;12.30;97.70;;;;;;5015595;28;20096;-75
2022/03/14 10:43:08;;;;;;;30.40;17.45;;;12.40;97.30;;;;;;4999675;28;20058;-76
2022/03/14 10:45:34;;;;;;;21.60;16.60;;;12.40;97.20;;;;;;4995890;28;20074;-75
2022/03/14 10:48:02;;;;;;;23.33;17.23;;;12.50;97.20;;;;;;4995902;28;20030;-76
2022/03/14 10:50:34;;;;;;;24.05;17.42;;;12.50;97.10;;;;;;4995318;28;20030;-75
2022/03/14 10:53:07;;;;;;;25.60;16.80;;;12.50;96.90;;;;;;5004276;28;20070;-75
2022/03/14 10:55:35;;;;;;;24.13;16.85;;;12.50;96.90;;;;;;5006194;28;20022;-76
2022/03/14 10:58:17;;;;;;;25.45;16.45;;;12.40;96.70;;;;;;4999219;28;20026;-75
2022/03/14 11:00:50;;;;;;;23.00;16.70;;;12.30;96.80;;;;;;4981747;28;20026;-76
2022/03/14 11:03:27;;;;;;;;;;;12.40;97.00;;;;;;4999636;28;20026;-77
2022/03/14 11:06:02;;;;;;;20.75;16.85;;;12.50;97.20;;;;;;5001361;28;20347;-79
2022/03/14 11:08:40;;;;;;;25.40;17.42;;;12.60;96.90;;;;;;4997470;28;20027;-78
2022/03/14 11:11:14;;;;;;;20.45;16.83;;;12.80;96.60;;;;;;4998697;28;20125;-77
2022/03/14 11:13:43;;;;;;;21.27;15.93;;;12.80;95.90;;;;;;4998260;28;20034;-76
2022/03/14 11:16:26;;;;;;;23.85;16.60;;;12.80;95.80;;;;;;4996727;28;20113;-78
2022/03/14 11:18:52;;;;;;;;;;;12.70;95.80;;;;;;4998362;28;20057;-77
2022/03/14 11:21:24;;;;;;;23.77;15.52;;;12.70;95.90;;;;;;4999301;28;20341;-77
2022/03/14 11:23:51;;;;;;;23.50;16.45;;;12.60;96.00;;;;;;5009631;28;20085;-80
2022/03/14 11:26:19;;;;;;;21.27;14.60;;;12.60;96.20;;;;;;5012431;28;20088;-79
2022/03/14 11:28:46;;;;;;;19.48;14.13;;;12.60;96.20;;;;;;5002185;28;20030;-79
2022/03/14 11:31:13;;;;;;;21.88;13.27;;;12.60;96.00;;;;;;5002984;28;20489;-80
2022/03/14 11:33:41;;;;;;;18.50;13.07;;;12.60;96.00;;;;;;5004919;28;20073;-79
2022/03/14 11:36:07;;;;;;;18.83;12.77;;;12.60;95.80;;;;;;4994664;28;20018;-80
2022/03/14 11:38:33;;;;;;;17.33;12.02;;;12.60;95.80;;;;;;5005428;28;20041;-76
2022/03/14 11:41:00;;;;;;;19.95;12.35;;;12.70;95.80;;;;;;4995005;28;20033;-78
2022/03/14 11:43:27;;;;;;;19.90;12.32;;;12.80;95.70;;;;;;5005071;28;20164;-77
2022/03/14 11:45:54;;;;;;;17.95;12.35;;;12.90;95.30;;;;;;5006961;28;20023;-77
2022/03/14 11:48:20;;;;;;;20.95;12.73;;;12.80;94.90;;;;;;5006915;28;20053;-78
2022/03/14 11:50:53;;;;;;;15.48;12.35;;;12.80;95.00;;;;;;4996138;28;20105;-77
2022/03/14 11:53:20;;;;;;;;;;;12.70;95.10;;;;;;4995830;28;20029;-81
2022/03/14 11:56:05;;;;;;;19.95;12.38;;;12.70;95.20;;;;;;4995372;28;19980;-79
2022/03/14 11:58:39;;;;;;;16.55;11.82;;;12.80;95.30;;;;;;4994673;28;20396;-80
2022/03/14 12:01:28;;;;;;;19.52;13.13;;;12.80;95.10;;;;;;4995475;28;20109;-80
2022/03/14 12:03:59;;;;;;;17.10;11.32;;;12.90;95.10;;;;;;4971027;28;20121;-81
2022/03/14 12:06:46;;;;;;;22.02;12.20;;;13.00;95.20;;;;;;5003404;28;20050;-80
2022/03/14 12:09:24;;;;;;;19.40;10.80;;;13.20;95.40;;;;;;5012384;28;20037;-80
2022/03/14 12:11:57;;;;;;;23.40;10.75;;;13.50;94.50;;;;;;5001231;28;20026;-77
2022/03/14 12:14:46;;;;;;;17.33;10.13;;;13.70;93.70;;;;;;5004504;28;20030;-76
2022/03/14 12:17:14;;;;;;;16.73;9.30;;;13.90;93.00;;;;;;5004628;28;20030;-76
2022/03/14 12:19:56;;;;;;;18.60;9.23;;;14.10;92.40;;;;;;5003318;28;20026;-75
2022/03/14 12:22:33;;;;;;;18.23;8.63;;;14.20;92.30;;;;;;5005740;28;20049;-76
2022/03/14 12:25:04;;;;;;;17.67;8.80;;;14.30;91.80;;;;;;4994880;28;20474;-78
2022/03/14 12:27:34;;;;;;;16.05;8.65;;;14.30;91.10;;;;;;4998314;28;20045;-76
2022/03/14 12:30:04;;;;;;;11.93;7.03;;;14.30;91.40;;;;;;5013388;28;20116;-78
2022/03/14 12:32:53;;;;;;;17.55;8.30;;;14.30;91.40;;;;;;5010412;28;20413;-78
2022/03/14 12:35:22;;;;;;;13.27;7.88;;;14.40;91.60;;;;;;4998367;28;20105;-77
2022/03/14 12:37:54;;;;;;;22.35;7.70;;;14.60;91.20;;;;;;5000822;28;20093;-76
2022/03/14 12:40:19;;;;;;;16.88;8.32;;;14.70;90.90;;;;;;4996345;28;20037;-76
2022/03/14 12:42:47;;;;;;;13.98;7.85;;;14.70;90.50;;;;;;4997665;28;20022;-76